createdAt,value
2023-02-19T00:02:28.466Z,-6.55
2023-02-19T00:05:03.309Z,-6.61
2023-02-19T00:07:38.014Z,-6.57
2023-02-19T00:10:12.106Z,-6.57
2023-02-19T00:12:45.757Z,-6.61
2023-02-19T00:15:19.701Z,-6.61
2023-02-19T00:17:53.207Z,-6.61
2023-02-19T00:20:26.907Z,-6.61
2023-02-19T00:23:00.203Z,-6.62
2023-02-19T00:25:33.641Z,-6.62
2023-02-19T00:28:09.575Z,-6.64
2023-02-19T00:30:43.031Z,-6.62
2023-02-19T00:33:17.079Z,-6.64
2023-02-19T00:35:50.630Z,-6.71
2023-02-19T00:38:23.726Z,-6.68
2023-02-19T00:40:57.336Z,-6.69
2023-02-19T00:43:31.314Z,-6.70
2023-02-19T00:46:04.823Z,-6.71
2023-02-19T00:48:38.364Z,-6.75
2023-02-19T00:51:12.192Z,-6.72
2023-02-19T00:53:46.463Z,-6.76
2023-02-19T00:56:19.951Z,-6.79
2023-02-19T00:58:53.528Z,-6.76
2023-02-19T01:01:27.150Z,-6.76
2023-02-19T01:04:00.419Z,-6.82
2023-02-19T01:06:34.830Z,-6.84
2023-02-19T01:09:09.101Z,-6.85
2023-02-19T01:11:42.662Z,-6.86
2023-02-19T01:14:16.564Z,-6.81
2023-02-19T01:16:50.099Z,-6.83
2023-02-19T01:19:23.408Z,-6.86
2023-02-19T01:21:56.942Z,-6.81
2023-02-19T01:24:30.608Z,-6.86
2023-02-19T01:27:03.890Z,-6.93
2023-02-19T01:29:37.238Z,-6.91
2023-02-19T01:32:11.629Z,-6.97
2023-02-19T01:34:45.164Z,-6.96
2023-02-19T01:37:18.702Z,-6.91
2023-02-19T01:39:52.017Z,-6.92
2023-02-19T01:42:25.590Z,-7.04
2023-02-19T01:45:33.444Z,-7.06
2023-02-19T01:48:11.512Z,-7.04
2023-02-19T01:50:48.358Z,-7.16
2023-02-19T01:53:25.366Z,-7.12
2023-02-19T01:56:01.237Z,-7.18
2023-02-19T01:58:37.357Z,-7.17
2023-02-19T02:01:12.266Z,-7.15
2023-02-19T02:03:49.043Z,-7.19
2023-02-19T02:06:25.987Z,-7.11
2023-02-19T02:09:18.359Z,-7.21
2023-02-19T02:11:54.724Z,-7.26
2023-02-19T02:14:30.913Z,-7.25
2023-02-19T02:17:08.086Z,-7.33
2023-02-19T02:19:55.125Z,-7.26
2023-02-19T02:22:30.960Z,-7.22
2023-02-19T02:25:39.519Z,-7.25
2023-02-19T02:28:32.387Z,-7.24
2023-02-19T02:31:09.607Z,-7.39
2023-02-19T02:33:46.014Z,-7.35
2023-02-19T02:36:22.364Z,-7.33
2023-02-19T02:38:57.011Z,-7.34
2023-02-19T02:41:30.950Z,-7.33
2023-02-19T02:44:07.012Z,-7.40
2023-02-19T02:46:43.572Z,-7.38
2023-02-19T02:49:20.172Z,-7.34
2023-02-19T02:51:55.963Z,-7.37
2023-02-19T02:54:48.198Z,-7.28
2023-02-19T02:57:22.185Z,-7.31
2023-02-19T02:59:57.928Z,-7.46
2023-02-19T03:02:33.131Z,-7.45
2023-02-19T03:05:26.576Z,-7.40
2023-02-19T03:08:04.198Z,-7.40
2023-02-19T03:10:40.575Z,-7.45
2023-02-19T03:13:33.782Z,-7.48
2023-02-19T03:16:27.723Z,-7.39
2023-02-19T03:19:21.349Z,-7.43
2023-02-19T03:24:59.460Z,-7.41
2023-02-19T03:27:37.566Z,-7.51
2023-02-19T03:30:16.037Z,-7.53
2023-02-19T03:32:52.578Z,-7.51
2023-02-19T03:35:29.350Z,-7.50
2023-02-19T03:38:07.785Z,-7.48
2023-02-19T03:40:44.941Z,-7.47
2023-02-19T03:43:22.538Z,-7.48
2023-02-19T03:46:01.751Z,-7.53
2023-02-19T03:48:37.425Z,-7.52
2023-02-19T03:51:18.039Z,-7.57
2023-02-19T03:53:56.186Z,-7.59
2023-02-19T03:56:32.798Z,-7.56
2023-02-19T03:59:07.214Z,-7.60
2023-02-19T04:01:43.528Z,-7.61
2023-02-19T04:04:21.056Z,-7.57
2023-02-19T04:06:57.521Z,-7.60
2023-02-19T04:09:35.576Z,-7.62
2023-02-19T04:12:12.208Z,-7.65
2023-02-19T04:14:48.796Z,-7.60
2023-02-19T04:17:24.536Z,-7.63
2023-02-19T04:20:00.351Z,-7.65
2023-02-19T04:22:35.548Z,-7.66
2023-02-19T04:25:10.420Z,-7.59
2023-02-19T04:27:45.195Z,-7.60
2023-02-19T04:30:18.859Z,-7.61
2023-02-19T04:32:52.279Z,-7.64
2023-02-19T04:35:25.366Z,-7.63
2023-02-19T04:37:59.288Z,-7.67
2023-02-19T04:40:32.878Z,-7.60
2023-02-19T04:43:06.225Z,-7.64
2023-02-19T04:45:41.109Z,-7.59
2023-02-19T04:48:15.038Z,-7.60
2023-02-19T04:50:48.429Z,-7.57
2023-02-19T04:53:21.894Z,-7.57
2023-02-19T04:55:55.366Z,-7.62
2023-02-19T04:58:28.666Z,-7.56
2023-02-19T05:01:02.000Z,-7.61
2023-02-19T05:03:35.988Z,-7.60
2023-02-19T05:06:12.058Z,-7.58
2023-02-19T05:08:45.672Z,-7.55
2023-02-19T05:11:19.154Z,-7.55
2023-02-19T05:13:52.592Z,-7.58
2023-02-19T05:16:26.906Z,-7.54
2023-02-19T05:19:00.410Z,-7.50
2023-02-19T05:21:34.028Z,-7.54
2023-02-19T05:24:08.526Z,-7.50
2023-02-19T05:26:44.553Z,-7.53
2023-02-19T05:29:17.107Z,-7.54
2023-02-19T05:31:50.781Z,-7.52
2023-02-19T05:34:24.383Z,-7.46
2023-02-19T05:36:58.982Z,-7.48
2023-02-19T05:39:32.319Z,-7.41
2023-02-19T05:42:08.365Z,-7.42
2023-02-19T05:44:43.035Z,-7.41
2023-02-19T05:47:17.803Z,-7.36
2023-02-19T05:49:51.254Z,-7.42
2023-02-19T05:52:25.134Z,-7.43
2023-02-19T05:54:58.711Z,-7.37
2023-02-19T05:57:32.174Z,-7.33
2023-02-19T06:00:07.692Z,-7.26
2023-02-19T06:02:42.744Z,-7.29
2023-02-19T06:05:17.219Z,-7.31
2023-02-19T06:07:51.493Z,-7.27
2023-02-19T06:10:24.947Z,-7.26
2023-02-19T06:12:58.323Z,-7.18
2023-02-19T06:15:31.731Z,-7.21
2023-02-19T06:18:06.011Z,-7.18
2023-02-19T06:20:39.301Z,-7.16
2023-02-19T06:23:12.663Z,-7.14
2023-02-19T06:25:46.122Z,-7.04
2023-02-19T06:28:19.745Z,-7.07
2023-02-19T06:30:53.504Z,-7.04
2023-02-19T06:33:27.590Z,-7.02
2023-02-19T06:36:02.824Z,-6.94
2023-02-19T06:38:36.332Z,-6.99
2023-02-19T06:41:11.314Z,-6.89
2023-02-19T06:43:44.960Z,-6.84
2023-02-19T06:46:18.603Z,-6.87
2023-02-19T06:48:52.808Z,-6.85
2023-02-19T06:51:29.019Z,-6.89
2023-02-19T06:54:03.311Z,-6.73
2023-02-19T06:56:39.596Z,-6.64
2023-02-19T06:59:17.022Z,-6.62
2023-02-19T07:01:50.763Z,-6.58
2023-02-19T07:04:24.611Z,-6.51
2023-02-19T07:06:59.970Z,-6.45
2023-02-19T07:09:33.693Z,-6.41
2023-02-19T07:12:08.535Z,-6.41
2023-02-19T07:14:42.134Z,-6.38
2023-02-19T07:17:15.762Z,-6.39
2023-02-19T07:19:48.807Z,-6.35
2023-02-19T07:22:23.309Z,-6.25
2023-02-19T07:24:56.956Z,-6.24
2023-02-19T07:27:30.552Z,-6.16
2023-02-19T07:30:03.859Z,-6.07
2023-02-19T07:32:37.323Z,-5.99
2023-02-19T07:35:11.498Z,-6.01
2023-02-19T07:37:44.975Z,-6.07
2023-02-19T07:40:18.774Z,-6.05
2023-02-19T07:42:52.109Z,-6.22
2023-02-19T07:45:25.594Z,-6.20
2023-02-19T07:47:58.960Z,-6.21
2023-02-19T07:50:32.818Z,-6.17
2023-02-19T07:53:06.205Z,-6.19
2023-02-19T07:55:39.705Z,-6.20
2023-02-19T07:58:13.039Z,-6.21
2023-02-19T08:00:46.910Z,-6.22
2023-02-19T08:03:20.480Z,-6.25
2023-02-19T08:05:55.163Z,-6.31
2023-02-19T08:08:48.720Z,-6.24
2023-02-19T08:11:39.651Z,-6.27
2023-02-19T08:14:13.215Z,-6.25
2023-02-19T08:16:52.528Z,-6.14
2023-02-19T08:19:26.350Z,-6.10
2023-02-19T08:22:00.039Z,-5.90
2023-02-19T08:24:34.033Z,-5.87
2023-02-19T08:27:07.578Z,-5.89
2023-02-19T08:29:41.075Z,-5.81
2023-02-19T08:32:14.699Z,-5.65
2023-02-19T08:34:47.992Z,-5.63
2023-02-19T08:37:21.359Z,-5.58
2023-02-19T08:39:54.797Z,-5.38
2023-02-19T08:42:29.433Z,-5.39
2023-02-19T08:45:02.765Z,-5.26
2023-02-19T08:47:38.337Z,-5.22
2023-02-19T08:50:12.745Z,-5.36
2023-02-19T08:52:46.083Z,-5.34
2023-02-19T08:55:19.934Z,-5.56
2023-02-19T08:57:53.605Z,-5.48
2023-02-19T09:00:27.526Z,-5.39
2023-02-19T09:03:01.778Z,-5.25
2023-02-19T09:05:35.293Z,-5.24
2023-02-19T09:08:08.522Z,-5.19
2023-02-19T09:10:42.122Z,-5.16
2023-02-19T09:13:17.990Z,-5.10
2023-02-19T09:15:51.733Z,-5.17
2023-02-19T09:18:25.749Z,-5.31
2023-02-19T09:21:02.772Z,-5.39
2023-02-19T09:23:37.550Z,-5.37
2023-02-19T09:26:13.662Z,-5.41
2023-02-19T09:28:47.891Z,-5.41
2023-02-19T09:31:21.364Z,-5.43
2023-02-19T09:33:54.853Z,-5.49
2023-02-19T09:36:28.287Z,-5.43
2023-02-19T09:39:02.125Z,-5.37
2023-02-19T09:41:38.405Z,-5.33
2023-02-19T09:44:14.675Z,-5.45
2023-02-19T09:46:50.467Z,-5.41
2023-02-19T09:49:26.973Z,-5.29
2023-02-19T09:52:04.314Z,-5.41
2023-02-19T09:54:39.632Z,-5.36
2023-02-19T09:57:16.176Z,-5.40
2023-02-19T09:59:52.807Z,-5.45
2023-02-19T10:02:27.749Z,-5.54
2023-02-19T10:05:02.772Z,-5.61
2023-02-19T10:07:40.580Z,-5.62
2023-02-19T10:10:34.719Z,-5.72
2023-02-19T10:13:21.828Z,-5.59
2023-02-19T10:15:58.883Z,-5.67
2023-02-19T10:18:35.496Z,-5.68
2023-02-19T10:21:10.055Z,-5.55
2023-02-19T10:23:45.415Z,-5.58
2023-02-19T10:26:18.943Z,-5.42
2023-02-19T10:28:54.305Z,-5.48
2023-02-19T10:31:28.215Z,-5.51
2023-02-19T10:34:03.647Z,-5.38
2023-02-19T10:36:39.779Z,-5.40
2023-02-19T10:42:22.734Z,-5.38
2023-02-19T10:45:01.418Z,-5.52
2023-02-19T10:47:36.102Z,-5.66
2023-02-19T10:50:19.780Z,-5.71
2023-02-19T10:52:57.335Z,-5.58
2023-02-19T10:55:37.732Z,-5.53
2023-02-19T10:58:28.726Z,-5.50
2023-02-19T11:01:15.134Z,-5.32
2023-02-19T11:03:49.943Z,-4.99
2023-02-19T11:06:26.009Z,-4.78
2023-02-19T11:09:02.199Z,-4.75
2023-02-19T11:11:38.442Z,-4.67
2023-02-19T11:14:19.849Z,-4.77
2023-02-19T11:16:56.954Z,-4.81
2023-02-19T11:19:37.975Z,-4.78
2023-02-19T11:22:31.906Z,-4.68
2023-02-19T11:25:09.906Z,-4.58
2023-02-19T11:27:58.621Z,-4.63
2023-02-19T11:30:43.376Z,-4.68
2023-02-19T11:33:28.568Z,-4.89
2023-02-19T11:36:20.382Z,-5.01
2023-02-19T11:38:54.098Z,-5.29
2023-02-19T11:41:54.513Z,-5.06
2023-02-19T11:44:34.347Z,-5.09
2023-02-19T11:47:18.698Z,-5.12
2023-02-19T11:49:55.070Z,-5.12
2023-02-19T11:52:32.634Z,-5.16
2023-02-19T11:55:11.458Z,-5.16
2023-02-19T11:57:48.817Z,-5.17
2023-02-19T12:00:28.456Z,-5.22
2023-02-19T12:03:31.226Z,-5.31
2023-02-19T12:06:16.328Z,-5.50
2023-02-19T12:09:35.623Z,-5.56
2023-02-19T12:12:17.326Z,-5.69
2023-02-19T12:15:45.706Z,-5.72
2023-02-19T12:18:33.968Z,-5.78
2023-02-19T12:21:16.085Z,-5.78
2023-02-19T12:24:04.503Z,-5.72
2023-02-19T12:26:41.445Z,-5.74
2023-02-19T12:29:22.881Z,-5.68
2023-02-19T12:32:31.661Z,-5.56
2023-02-19T12:35:30.916Z,-5.60
2023-02-19T12:38:10.904Z,-5.73
2023-02-19T12:40:51.713Z,-5.78
2023-02-19T12:43:26.362Z,-5.80
2023-02-19T12:46:03.069Z,-5.86
2023-02-19T12:48:39.905Z,-5.86
2023-02-19T12:51:16.286Z,-5.88
2023-02-19T12:53:52.249Z,-5.87
2023-02-19T12:56:28.748Z,-5.91
2023-02-19T12:59:05.246Z,-5.90
2023-02-19T13:01:42.612Z,-5.86
2023-02-19T13:04:23.398Z,-5.82
2023-02-19T13:07:00.445Z,-5.85
2023-02-19T13:09:37.450Z,-5.90
2023-02-19T13:12:15.498Z,-5.93
2023-02-19T13:14:52.473Z,-5.91
2023-02-19T13:17:30.054Z,-5.92
2023-02-19T13:20:03.548Z,-5.95
2023-02-19T13:22:58.191Z,-5.98
2023-02-19T13:25:35.352Z,-5.97
2023-02-19T13:28:24.467Z,-6.00
2023-02-19T13:31:09.416Z,-6.03
2023-02-19T13:33:50.977Z,-6.00
2023-02-19T13:36:27.427Z,-5.95
2023-02-19T13:39:03.870Z,-5.92
2023-02-19T13:41:41.070Z,-5.91
2023-02-19T13:44:20.885Z,-5.95
2023-02-19T13:46:57.057Z,-5.93
2023-02-19T13:49:50.612Z,-5.93
2023-02-19T13:52:41.812Z,-5.91
2023-02-19T13:55:51.602Z,-5.89
2023-02-19T13:59:00.578Z,-5.92
2023-02-19T14:02:18.991Z,-5.98
2023-02-19T14:04:59.489Z,-6.04
2023-02-19T14:07:55.386Z,-6.04
2023-02-19T14:11:06.100Z,-6.06
2023-02-19T14:14:28.495Z,-5.99
2023-02-19T14:17:08.620Z,-6.09
2023-02-19T14:19:54.769Z,-6.10
2023-02-19T14:22:51.480Z,-6.14
2023-02-19T14:25:47.015Z,-6.17
2023-02-19T14:28:44.752Z,-6.22
2023-02-19T14:31:31.162Z,-6.25
2023-02-19T14:34:07.561Z,-6.28
2023-02-19T14:36:49.231Z,-6.23
2023-02-19T14:39:24.986Z,-6.25
2023-02-19T14:42:01.564Z,-6.26
2023-02-19T14:44:40.168Z,-6.17
2023-02-19T14:47:18.892Z,-6.21
2023-02-19T14:49:56.644Z,-6.21
2023-02-19T14:52:33.185Z,-6.21
2023-02-19T14:55:09.952Z,-6.20
2023-02-19T14:57:46.502Z,-6.17
2023-02-19T15:00:28.860Z,-6.17
2023-02-19T15:03:02.928Z,-6.22
2023-02-19T15:05:38.943Z,-6.20
2023-02-19T15:08:15.472Z,-6.17
2023-02-19T15:10:49.533Z,-6.15
2023-02-19T15:13:25.811Z,-6.13
2023-02-19T15:16:00.278Z,-6.15
2023-02-19T15:18:36.874Z,-6.16
2023-02-19T15:21:15.582Z,-6.16
2023-02-19T15:23:49.564Z,-6.18
2023-02-19T15:26:25.696Z,-6.21
2023-02-19T15:29:04.874Z,-6.22
2023-02-19T15:31:40.299Z,-6.17
2023-02-19T15:34:19.478Z,-6.22
2023-02-19T15:36:55.471Z,-6.22
2023-02-19T15:39:32.796Z,-6.20
2023-02-19T15:42:09.390Z,-6.20
2023-02-19T15:44:46.849Z,-6.23
2023-02-19T15:47:25.018Z,-6.24
2023-02-19T15:50:02.548Z,-6.27
2023-02-19T15:52:38.529Z,-6.25
2023-02-19T15:55:23.459Z,-6.23
2023-02-19T15:57:59.655Z,-6.33
2023-02-19T16:00:37.630Z,-6.34
2023-02-19T16:03:16.714Z,-6.35
2023-02-19T16:06:00.480Z,-6.26
2023-02-19T16:08:36.013Z,-6.23
2023-02-19T16:11:22.729Z,-6.27
2023-02-19T16:14:15.438Z,-6.33
2023-02-19T16:16:51.406Z,-6.38
2023-02-19T16:19:28.599Z,-6.32
2023-02-19T16:22:02.410Z,-6.33
2023-02-19T16:24:38.530Z,-6.37
2023-02-19T16:27:12.433Z,-6.29
2023-02-19T16:32:29.798Z,-6.14
2023-02-19T16:35:03.456Z,-6.23
2023-02-19T16:37:40.842Z,-6.22
2023-02-19T16:40:56.609Z,-6.24
2023-02-19T16:43:34.343Z,-6.25
2023-02-19T16:46:11.723Z,-6.26
2023-02-19T16:48:45.590Z,-6.27
2023-02-19T16:51:23.430Z,-6.31
2023-02-19T16:54:00.145Z,-6.29
2023-02-19T16:56:33.815Z,-6.23
2023-02-19T16:59:08.180Z,-6.27
2023-02-19T17:01:42.285Z,-6.23
2023-02-19T17:04:16.458Z,-6.27
2023-02-19T17:06:50.178Z,-6.26
2023-02-19T17:09:23.919Z,-6.28
2023-02-19T17:11:57.630Z,-6.30
2023-02-19T17:14:31.211Z,-6.30
2023-02-19T17:17:05.390Z,-6.31
2023-02-19T17:19:40.285Z,-6.28
2023-02-19T17:22:16.449Z,-6.27
2023-02-19T17:24:50.041Z,-6.26
2023-02-19T17:27:23.762Z,-6.32
2023-02-19T17:29:57.215Z,-6.28
2023-02-19T17:32:30.482Z,-6.34
2023-02-19T17:35:03.976Z,-6.35
2023-02-19T17:37:37.594Z,-6.32
2023-02-19T17:40:31.869Z,-6.28
2023-02-19T17:42:56.489Z,-6.33
2023-02-19T17:45:30.294Z,-6.35
2023-02-19T17:48:04.138Z,-6.31
2023-02-19T17:50:38.946Z,-6.28
2023-02-19T17:53:12.617Z,-6.32
2023-02-19T17:55:46.345Z,-6.29
2023-02-19T17:58:19.912Z,-6.34
2023-02-19T18:00:53.925Z,-6.35
2023-02-19T18:03:27.819Z,-6.35
2023-02-19T18:06:01.548Z,-6.32
2023-02-19T18:08:35.114Z,-6.33
2023-02-19T18:11:09.489Z,-6.34
2023-02-19T18:13:43.015Z,-6.34
2023-02-19T18:16:17.387Z,-6.34
2023-02-19T18:18:51.154Z,-6.35
2023-02-19T18:21:26.007Z,-6.35
2023-02-19T18:23:59.546Z,-6.36
2023-02-19T18:26:33.773Z,-6.38
2023-02-19T18:29:07.999Z,-6.37
2023-02-19T18:31:41.833Z,-6.37
2023-02-19T18:34:20.247Z,-6.39
2023-02-19T18:36:53.742Z,-6.38
2023-02-19T18:39:27.137Z,-6.37
2023-02-19T18:42:01.221Z,-6.37
2023-02-19T18:44:34.668Z,-6.40
2023-02-19T18:47:08.751Z,-6.40
2023-02-19T18:49:43.772Z,-6.35
2023-02-19T18:52:19.428Z,-6.36
2023-02-19T18:54:53.596Z,-6.36
2023-02-19T18:57:27.693Z,-6.34
2023-02-19T19:00:01.095Z,-6.34
2023-02-19T19:02:48.405Z,-6.32
2023-02-19T19:05:11.891Z,-6.33
2023-02-19T19:07:45.490Z,-6.34
2023-02-19T19:10:20.279Z,-6.36
2023-02-19T19:12:54.704Z,-6.33
2023-02-19T19:15:29.861Z,-6.31
2023-02-19T19:18:03.650Z,-6.32
2023-02-19T19:20:37.236Z,-6.29
2023-02-19T19:23:10.728Z,-6.23
2023-02-19T19:25:44.195Z,-6.20
2023-02-19T19:28:17.759Z,-6.22
2023-02-19T19:30:51.228Z,-6.22
2023-02-19T19:33:27.978Z,-6.24
2023-02-19T19:36:00.874Z,-6.24
2023-02-19T19:38:34.548Z,-6.21
2023-02-19T19:41:08.729Z,-6.13
2023-02-19T19:43:41.760Z,-6.05
2023-02-19T19:46:19.330Z,-5.99
2023-02-19T19:48:54.096Z,-5.97
2023-02-19T19:51:33.340Z,-5.92
2023-02-19T19:54:10.846Z,-5.91
2023-02-19T19:56:45.614Z,-5.91
2023-02-19T19:59:19.856Z,-5.92
2023-02-19T20:01:57.229Z,-6.00
2023-02-19T20:04:31.823Z,-5.98
2023-02-19T20:07:05.550Z,-5.94
2023-02-19T20:09:38.971Z,-5.98
2023-02-19T20:12:13.162Z,-6.02
2023-02-19T20:14:48.053Z,-6.06
2023-02-19T20:17:24.954Z,-6.05
2023-02-19T20:19:58.638Z,-6.04
2023-02-19T20:22:32.261Z,-6.03
2023-02-19T20:25:06.357Z,-6.03
2023-02-19T20:27:40.130Z,-6.07
2023-02-19T20:30:17.787Z,-6.10
2023-02-19T20:32:51.735Z,-6.12
2023-02-19T20:35:28.081Z,-6.16
2023-02-19T20:38:01.680Z,-6.21
2023-02-19T20:40:36.329Z,-6.22
2023-02-19T20:43:09.991Z,-6.26
2023-02-19T20:45:45.730Z,-6.31
2023-02-19T20:48:20.086Z,-6.36
2023-02-19T20:50:55.919Z,-6.38
2023-02-19T20:53:30.188Z,-6.36
2023-02-19T20:56:03.746Z,-6.44
2023-02-19T20:58:37.524Z,-6.46
2023-02-19T21:01:11.952Z,-6.47
2023-02-19T21:03:45.499Z,-6.47
2023-02-19T21:06:18.831Z,-6.50
2023-02-19T21:08:52.610Z,-6.51
2023-02-19T21:11:26.389Z,-6.54
2023-02-19T21:14:00.083Z,-6.56
2023-02-19T21:16:34.629Z,-6.62
2023-02-19T21:19:08.107Z,-6.66
2023-02-19T21:21:41.680Z,-6.65
2023-02-19T21:24:16.669Z,-6.70
2023-02-19T21:26:52.471Z,-6.71
2023-02-19T21:29:26.179Z,-6.70
2023-02-19T21:32:00.190Z,-6.70
2023-02-19T21:34:33.619Z,-6.67
2023-02-19T21:37:07.251Z,-6.66
2023-02-19T21:39:42.408Z,-6.59
2023-02-19T21:42:16.174Z,-6.53
2023-02-19T21:44:49.604Z,-6.50
2023-02-19T21:47:22.873Z,-6.50
2023-02-19T21:49:56.667Z,-6.47
2023-02-19T21:52:31.267Z,-6.42
2023-02-19T21:55:04.527Z,-6.37
2023-02-19T21:57:37.893Z,-6.41
2023-02-19T22:00:13.331Z,-6.36
2023-02-19T22:02:46.749Z,-6.31
2023-02-19T22:05:20.201Z,-6.27
2023-02-19T22:07:54.009Z,-6.25
2023-02-19T22:10:27.531Z,-6.21
2023-02-19T22:13:01.035Z,-6.18
2023-02-19T22:15:34.613Z,-6.14
2023-02-19T22:18:08.544Z,-6.10
2023-02-19T22:20:42.272Z,-6.10
2023-02-19T22:23:15.736Z,-6.07
2023-02-19T22:25:49.282Z,-6.12
2023-02-19T22:28:23.168Z,-6.21
2023-02-19T22:30:56.621Z,-6.26
2023-02-19T22:33:30.131Z,-6.30
2023-02-19T22:36:04.086Z,-6.32
2023-02-19T22:38:37.549Z,-6.31
2023-02-19T22:41:11.229Z,-6.32
2023-02-19T22:43:44.641Z,-6.32
2023-02-19T22:46:20.615Z,-6.27
2023-02-19T22:48:54.253Z,-6.21
2023-02-19T22:51:28.044Z,-6.17
2023-02-19T22:54:02.359Z,-6.11
2023-02-19T22:56:36.179Z,-6.01
2023-02-19T22:59:09.728Z,-5.94
2023-02-19T23:01:43.040Z,-5.94
2023-02-19T23:04:16.783Z,-5.94
2023-02-19T23:06:50.674Z,-5.92
2023-02-19T23:09:26.507Z,-5.92
2023-02-19T23:12:05.969Z,-5.90
2023-02-19T23:14:39.459Z,-5.92
2023-02-19T23:17:13.285Z,-5.95
2023-02-19T23:19:47.324Z,-6.04
2023-02-19T23:22:20.909Z,-6.07
2023-02-19T23:24:54.604Z,-6.07
2023-02-19T23:27:28.683Z,-6.05
2023-02-19T23:30:02.029Z,-6.05
2023-02-19T23:32:35.485Z,-6.03
2023-02-19T23:35:09.382Z,-6.01
2023-02-19T23:37:42.912Z,-5.97
2023-02-19T23:40:17.303Z,-5.95
2023-02-19T23:42:52.283Z,-5.92
2023-02-19T23:45:25.821Z,-5.91
2023-02-19T23:47:59.281Z,-5.92
2023-02-19T23:50:32.845Z,-5.92
2023-02-19T23:53:06.712Z,-5.95
2023-02-19T23:55:41.707Z,-5.98
2023-02-19T23:58:15.479Z,-6.02
